Time;durP1;ratioP1;P1;durP2;ratioP2;P2;SDS_P1;SDS_P2;PMS_P1;PMS_P2;Temp;Humidity;BMP_temperature;BMP_pressure;BME280_temperature;BME280_humidity;BME280_pressure;Samples;Min_cycle;Max_cycle;Signal;HPM_P1;HPM_P2
2022/11/01 00:01:02;;;;;;;11.82;6.85;;;;;;;14.79;94.14;100749.28;5060924;28;20063;-83
2022/11/01 00:03:27;;;;;;;10.75;6.20;;;;;;;14.83;93.92;100743.59;5027197;28;20087;-84
2022/11/01 00:05:53;;;;;;;12.00;6.18;;;;;;;14.88;93.67;100749.28;5048455;28;20036;-83
2022/11/01 00:08:18;;;;;;;16.17;6.53;;;;;;;14.94;93.37;100748.72;5047597;28;20496;-83
2022/11/01 00:10:43;;;;;;;12.80;5.78;;;;;;;15.01;93.06;100747.16;5050207;28;20070;-83
2022/11/01 00:13:12;;;;;;;13.65;5.78;;;;;;;15.08;92.90;100735.97;5048671;28;20059;-84
2022/11/01 00:15:38;;;;;;;11.98;5.50;;;;;;;15.12;92.63;100740.00;5049071;28;20021;-84
2022/11/01 00:18:03;;;;;;;18.08;5.68;;;;;;;15.22;92.09;100739.00;5048111;28;20044;-83
2022/11/01 00:20:29;;;;;;;13.13;5.75;;;;;;;15.29;91.53;100733.94;5048866;28;20028;-84
2022/11/01 00:22:54;;;;;;;13.52;5.78;;;;;;;15.36;91.11;100740.31;5014530;28;20064;-84
2022/11/01 00:25:19;;;;;;;8.95;5.35;;;;;;;15.36;91.32;100740.31;5041913;28;20473;-83
2022/11/01 00:27:45;;;;;;;9.30;5.38;;;;;;;15.42;90.86;100737.09;5010890;28;20056;-84
2022/11/01 00:30:10;;;;;;;11.15;5.22;;;;;;;15.46;90.83;100730.50;5033269;28;20032;-84
2022/11/01 00:32:35;;;;;;;10.18;5.35;;;;;;;15.53;90.86;100736.03;5048716;28;20048;-83
2022/11/01 00:35:01;;;;;;;14.32;5.95;;;;;;;15.52;91.24;100727.25;5032258;28;20471;-83
2022/11/01 00:37:27;;;;;;;12.23;5.47;;;;;;;15.55;91.00;100734.91;5056411;28;20398;-83
2022/11/01 00:39:53;;;;;;;10.35;4.70;;;;;;;15.58;91.14;100731.16;5045737;28;20025;-83
2022/11/01 00:42:18;;;;;;;12.35;4.97;;;;;;;15.63;90.95;100727.09;5060787;28;20036;-83
2022/11/01 00:44:43;;;;;;;12.60;4.90;;;;;;;15.69;90.96;100727.47;5062249;28;20044;-83
2022/11/01 00:47:12;;;;;;;12.20;4.90;;;;;;;15.73;90.59;100731.50;5029566;28;20017;-84
2022/11/01 00:49:37;;;;;;;13.77;4.78;;;;;;;15.71;90.73;100729.00;5027749;28;20022;-83
2022/11/01 00:52:03;;;;;;;14.88;5.60;;;;;;;15.72;91.17;100724.53;5027996;28;20028;-83
2022/11/01 00:54:28;;;;;;;9.07;4.60;;;;;;;15.77;91.16;100719.59;5023985;28;20036;-84
2022/11/01 00:56:53;;;;;;;13.45;5.13;;;;;;;15.83;90.38;100719.00;5028808;28;20480;-83
2022/11/01 00:59:19;;;;;;;10.25;4.60;;;;;;;15.85;90.61;100711.72;5028830;28;20028;-83
2022/11/01 01:01:44;;;;;;;8.75;4.43;;;;;;;15.87;90.82;100717.72;5029261;28;20156;-83
2022/11/01 01:04:10;;;;;;;13.65;5.25;;;;;;;15.94;90.38;100718.78;5056895;28;20111;-84
2022/11/01 01:06:35;;;;;;;11.90;5.13;;;;;;;15.95;90.31;100715.13;5049295;28;20036;-85
2022/11/01 01:09:00;;;;;;;14.43;4.45;;;;;;;15.93;90.44;100711.78;5048925;28;20032;-84
2022/11/01 01:11:27;;;;;;;11.95;4.93;;;;;;;15.95;90.17;100710.66;5030168;28;20486;-84
2022/11/01 01:13:52;;;;;;;9.32;4.47;;;;;;;16.02;90.02;100705.59;5009916;28;20079;-83
2022/11/01 01:16:17;;;;;;;9.30;4.70;;;;;;;16.02;90.24;100705.59;5008874;28;20108;-84
2022/11/01 01:18:43;;;;;;;11.40;5.05;;;;;;;16.02;90.33;100700.28;5008814;28;20104;-84
2022/11/01 01:21:08;;;;;;;13.52;5.07;;;;;;;16.03;90.67;100701.97;5018104;28;20178;-83
2022/11/01 01:23:35;;;;;;;12.60;5.15;;;;;;;16.07;90.72;100713.94;5035510;28;20056;-84
2022/11/01 01:26:07;;;;;;;14.25;5.32;;;;;;;16.08;90.71;100714.78;5048244;28;20442;-84
2022/11/01 01:28:33;;;;;;;13.27;5.32;;;;;;;16.11;90.67;100720.59;5042107;28;20034;-84
2022/11/01 01:30:58;;;;;;;10.82;5.53;;;;;;;16.08;91.07;100710.31;5060977;28;20056;-84
2022/11/01 01:33:23;;;;;;;9.63;5.03;;;;;;;16.07;91.05;100708.63;5036711;28;20044;-83
2022/11/01 01:35:49;;;;;;;12.98;5.18;;;;;;;16.05;91.25;100710.59;5049779;28;20025;-83
2022/11/01 01:38:14;;;;;;;9.35;5.30;;;;;;;16.03;91.62;100720.53;5049044;28;20056;-84
2022/11/01 01:40:39;;;;;;;11.18;4.93;;;;;;;16.03;91.78;100711.75;5047697;28;20025;-84
2022/11/01 01:43:10;;;;;;;13.18;5.18;;;;;;;16.03;91.33;100712.59;5049705;28;20746;-84
2022/11/01 01:45:39;;;;;;;13.20;5.03;;;;;;;16.04;91.73;100708.09;5048007;28;20051;-83
2022/11/01 01:48:08;;;;;;;10.52;5.00;;;;;;;16.05;91.83;100705.28;5025564;28;20437;-84
2022/11/01 01:50:47;;;;;;;14.40;5.45;;;;;;;16.06;91.63;100712.28;5013323;28;20024;-83
2022/11/01 01:53:41;;;;;;;13.02;5.53;;;;;;;16.10;91.92;100697.72;5010742;28;20171;-84
2022/11/01 01:56:39;;;;;;;11.13;4.85;;;;;;;16.13;92.09;100702.72;5011344;28;20030;-84
2022/11/01 01:59:12;;;;;;;9.70;4.80;;;;;;;16.15;91.63;100698.09;5005577;28;20106;-87
2022/11/01 02:01:39;;;;;;;14.85;4.75;;;;;;;16.17;91.44;100704.06;5012262;28;20053;-84
2022/11/01 02:04:15;;;;;;;8.65;4.55;;;;;;;16.18;91.52;100700.44;5033813;28;20048;-87
2022/11/01 02:06:41;;;;;;;10.80;5.13;;;;;;;16.21;91.33;100699.28;5034184;28;20025;-87
2022/11/01 02:09:08;;;;;;;9.68;4.80;;;;;;;16.20;91.44;100701.09;5033481;28;20026;-88
2022/11/01 02:11:35;;;;;;;14.32;5.75;;;;;;;16.17;91.31;100704.06;5031709;28;20017;-89
2022/11/01 02:14:01;;;;;;;11.52;4.75;;;;;;;16.15;91.56;100706.03;5030292;28;20098;-83
2022/11/01 02:16:59;;;;;;;11.15;4.85;;;;;;;16.18;91.90;100705.75;5032116;28;20045;-83
2022/11/01 02:19:39;;;;;;;13.57;5.15;;;;;;;16.18;91.69;100703.09;5030978;28;20046;-83
2022/11/01 02:22:26;;;;;;;12.70;4.78;;;;;;;16.17;91.51;100709.38;5026441;28;20096;-83
2022/11/01 02:25:38;;;;;;;10.75;5.15;;;;;;;16.20;91.54;100703.75;5031552;28;20533;-83
2022/11/01 02:28:37;;;;;;;11.27;4.65;;;;;;;16.19;91.50;100704.75;5039041;28;20089;-84
2022/11/01 02:31:12;;;;;;;15.68;5.10;;;;;;;16.16;91.46;100702.41;5079043;28;20029;-82
2022/11/01 02:33:56;;;;;;;10.32;4.72;;;;;;;16.16;91.46;100707.72;5075918;28;20018;-83
2022/11/01 02:36:30;;;;;;;11.90;4.80;;;;;;;16.11;91.07;100714.47;5042277;28;20240;-84
2022/11/01 02:39:04;;;;;;;12.35;4.25;;;;;;;16.13;90.77;100704.53;5031058;28;20025;-82
2022/11/01 02:41:38;;;;;;;9.15;4.20;;;;;;;16.11;90.42;100720.59;5041447;28;20339;-84
2022/11/01 02:44:11;;;;;;;8.98;4.47;;;;;;;16.13;90.67;100726.59;5048086;28;20060;-84
2022/11/01 02:49:28;;;;;;;8.40;4.80;;;;;;;16.08;91.09;100726.22;5049031;28;20064;-85
2022/11/01 02:51:54;;;;;;;9.20;4.60;;;;;;;16.03;91.40;100720.53;5067746;28;20029;-83
2022/11/01 02:54:32;;;;;;;10.52;5.10;;;;;;;16.03;91.64;100727.66;5047452;28;20029;-82
2022/11/01 02:57:02;;;;;;;8.80;4.65;;;;;;;16.03;91.44;100728.50;5049245;28;20028;-84
2022/11/01 02:59:28;;;;;;;13.60;5.00;;;;;;;15.97;91.81;100727.25;5065790;28;20059;-86
2022/11/01 03:02:12;;;;;;;10.02;4.40;;;;;;;15.97;92.10;100729.09;5062870;28;20029;-84
2022/11/01 03:04:37;;;;;;;13.00;4.82;;;;;;;15.93;92.00;100730.38;5061126;28;20029;-84
2022/11/01 03:07:07;;;;;;;9.30;4.65;;;;;;;15.92;92.41;100739.31;5066956;28;20088;-84
2022/11/01 03:09:35;;;;;;;10.98;4.47;;;;;;;15.89;92.56;100737.81;5046384;28;20025;-84
2022/11/01 03:12:08;;;;;;;9.98;4.38;;;;;;;15.89;92.58;100750.25;5031426;28;20381;-84
2022/11/01 03:14:43;;;;;;;9.50;4.53;;;;;;;15.90;92.18;100759.88;5031300;28;20025;-83
2022/11/01 03:17:18;;;;;;;7.95;4.53;;;;;;;15.91;91.88;100761.53;5041855;28;20096;-84
2022/11/01 03:20:04;;;;;;;9.40;3.90;;;;;;;15.93;88.89;100764.88;5049841;28;20029;-83
2022/11/01 03:22:36;;;;;;;7.38;3.67;;;;;;;15.92;88.26;100763.19;5051032;28;20492;-83
2022/11/01 03:25:40;;;;;;;7.40;3.17;;;;;;;15.95;87.11;100768.22;5050364;28;20451;-83
2022/11/01 03:28:37;;;;;;;7.20;3.55;;;;;;;15.94;85.61;100779.81;5012162;28;20072;-84
2022/11/01 03:31:09;;;;;;;7.65;2.90;;;;;;;15.90;83.37;100781.09;5011552;28;20498;-84
2022/11/01 03:33:39;;;;;;;3.38;2.13;;;;;;;15.84;83.14;100787.00;5049090;28;20032;-85
2022/11/01 03:36:09;;;;;;;9.65;2.80;;;;;;;15.82;82.47;100796.94;5011141;28;20022;-84
2022/11/01 03:38:40;;;;;;;7.30;2.63;;;;;;;15.74;83.04;100799.50;5011824;28;20034;-84
2022/11/01 03:41:12;;;;;;;5.00;1.92;;;;;;;15.72;80.09;100804.94;5016340;28;20395;-85
2022/11/01 03:43:38;;;;;;;7.20;2.17;;;;;;;15.66;80.56;100795.75;5040867;28;20021;-84
2022/11/01 03:46:04;;;;;;;6.80;1.77;;;;;;;15.62;78.39;100804.16;5044635;28;20086;-84
2022/11/01 03:48:29;;;;;;;4.95;1.40;;;;;;;15.61;75.65;100805.97;5049631;28;20025;-83
2022/11/01 03:50:55;;;;;;;2.78;1.50;;;;;;;15.57;74.29;100822.28;5051574;28;20504;-84
2022/11/01 03:53:21;;;;;;;6.15;1.45;;;;;;;15.50;74.20;100827.34;5048269;28;20021;-84
2022/11/01 03:55:46;;;;;;;4.90;1.23;;;;;;;15.44;72.78;100833.22;5043611;28;20121;-84
2022/11/01 03:58:11;;;;;;;5.05;1.48;;;;;;;15.39;71.94;100832.81;5045233;28;20060;-85
2022/11/01 04:00:40;;;;;;;2.30;1.10;;;;;;;15.33;71.63;100846.66;5041268;28;20048;-84
2022/11/01 04:03:07;;;;;;;4.63;1.30;;;;;;;15.26;71.02;100857.00;5060799;28;20547;-84
2022/11/01 04:05:34;;;;;;;2.95;1.05;;;;;;;15.20;71.59;100872.63;5028247;28;20033;-84
2022/11/01 04:08:00;;;;;;;4.32;1.10;;;;;;;15.16;69.57;100868.59;5027627;28;20044;-85
2022/11/01 04:10:28;;;;;;;2.22;0.80;;;;;;;15.11;69.63;100878.78;5061251;28;20025;-84
2022/11/01 04:12:57;;;;;;;5.22;1.15;;;;;;;15.05;69.27;100881.03;5061731;28;20064;-84
2022/11/01 04:21:12;;;;;;;4.88;1.00;;;;;;;14.83;70.75;100899.88;5029427;28;20565;-84
2022/11/01 04:23:38;;;;;;;2.45;0.88;;;;;;;14.76;71.52;100911.97;5061613;28;20048;-85
2022/11/01 04:26:04;;;;;;;5.07;1.08;;;;;;;14.67;71.85;100907.53;5029701;28;20056;-84
2022/11/01 04:28:30;;;;;;;3.20;0.93;;;;;;;14.59;72.41;100904.75;5028601;28;20029;-85
2022/11/01 04:30:58;;;;;;;3.42;1.00;;;;;;;14.53;72.34;100921.19;5029717;28;20032;-85
2022/11/01 04:33:23;;;;;;;5.63;1.10;;;;;;;14.50;71.97;100924.09;5063288;28;20030;-84
2022/11/01 04:35:49;;;;;;;3.65;0.90;;;;;;;14.45;72.21;100934.28;5030614;28;20028;-84
2022/11/01 04:38:15;;;;;;;2.75;0.90;;;;;;;14.40;72.17;100940.75;5029551;28;20029;-84
2022/11/01 04:40:42;;;;;;;5.30;1.90;;;;;;;14.35;71.64;100944.78;5028925;28;20120;-85
2022/11/01 04:43:07;;;;;;;2.58;0.88;;;;;;;14.31;71.76;100949.50;5029102;28;20033;-85
2022/11/01 04:45:33;;;;;;;9.13;1.27;;;;;;;14.27;71.72;100953.41;5031656;28;20036;-85
2022/11/01 04:48:15;;;;;;;5.80;0.90;;;;;;;14.27;71.73;100969.28;5049276;28;20033;-86
2022/11/01 04:50:41;;;;;;;4.72;1.00;;;;;;;14.23;71.55;100967.03;5048656;28;20049;-85
2022/11/01 04:53:08;;;;;;;4.28;1.08;;;;;;;14.16;71.75;100981.78;5026488;28;20025;-84
2022/11/01 04:55:34;;;;;;;4.03;0.95;;;;;;;14.10;71.82;100980.50;5060864;28;20108;-85
2022/11/01 04:57:59;;;;;;;3.95;1.17;;;;;;;14.08;72.36;100985.94;5042729;28;20148;-85
2022/11/01 05:00:25;;;;;;;3.90;1.20;;;;;;;14.04;72.33;101004.84;5061762;28;20037;-85
2022/11/01 05:02:51;;;;;;;3.22;1.10;;;;;;;14.00;71.62;101003.41;5028363;28;20038;-85
2022/11/01 05:05:17;;;;;;;4.63;1.05;;;;;;;13.96;71.59;101018.72;5040960;28;20036;-84
2022/11/01 05:07:42;;;;;;;5.90;1.05;;;;;;;13.93;70.74;101011.03;5039248;28;20029;-86
2022/11/01 05:10:09;;;;;;;4.40;1.05;;;;;;;13.89;70.94;101016.72;5007608;28;20065;-85
2022/11/01 05:12:34;;;;;;;5.13;0.98;;;;;;;13.83;71.40;101022.53;5040460;28;20701;-84
2022/11/01 05:15:00;;;;;;;4.47;0.80;;;;;;;13.80;71.27;101027.13;5009077;28;20025;-85
2022/11/01 05:17:28;;;;;;;3.95;0.93;;;;;;;13.74;72.03;101030.28;5035130;28;20031;-85
2022/11/01 05:19:53;;;;;;;5.30;1.10;;;;;;;13.72;71.13;101026.94;5049145;28;20057;-84
2022/11/01 05:22:18;;;;;;;6.07;0.85;;;;;;;13.69;71.76;101037.78;5049418;28;20512;-84
2022/11/01 05:24:44;;;;;;;5.07;0.93;;;;;;;13.65;72.22;101039.00;5052001;28;20060;-84
2022/11/01 05:27:09;;;;;;;4.82;1.00;;;;;;;13.59;72.66;101039.50;5030514;28;20021;-85
2022/11/01 05:29:35;;;;;;;6.70;1.02;;;;;;;13.55;72.86;101040.72;5032909;28;20032;-84
2022/11/01 05:32:00;;;;;;;4.50;1.27;;;;;;;13.51;72.90;101049.88;5030660;28;20393;-84
2022/11/01 05:34:26;;;;;;;5.40;1.00;;;;;;;13.48;73.17;101050.13;5034812;28;20363;-84
2022/11/01 05:36:52;;;;;;;5.30;1.15;;;;;;;13.41;73.62;101048.97;5064914;28;20026;-84
2022/11/01 05:39:18;;;;;;;6.15;1.25;;;;;;;13.41;73.19;101043.69;5031550;28;20032;-85
2022/11/01 05:41:43;;;;;;;4.55;0.93;;;;;;;13.36;73.56;101051.16;5035586;28;20107;-85
2022/11/01 05:44:08;;;;;;;3.38;0.88;;;;;;;13.33;74.17;101059.34;5028562;28;20029;-84
2022/11/01 05:46:34;;;;;;;3.17;1.17;;;;;;;13.33;73.85;101054.03;5033764;28;20029;-85
2022/11/01 05:48:59;;;;;;;3.05;1.02;;;;;;;13.29;73.92;101068.47;5051935;28;20036;-84
2022/11/01 05:51:24;;;;;;;8.07;1.35;;;;;;;13.28;73.64;101072.09;5031386;28;20056;-84
2022/11/01 05:53:50;;;;;;;6.85;1.10;;;;;;;13.26;71.32;101076.66;5030566;28;20026;-84
2022/11/01 05:56:16;;;;;;;6.68;1.23;;;;;;;13.26;71.33;101087.22;5047464;28;20028;-84
2022/11/01 05:58:42;;;;;;;7.88;1.50;;;;;;;13.23;69.44;101076.91;5032384;28;20440;-85
2022/11/01 06:01:08;;;;;;;7.28;1.45;;;;;;;13.17;69.69;101083.50;5039947;28;20109;-84
2022/11/01 06:03:34;;;;;;;10.70;1.98;;;;;;;13.13;69.44;101077.59;5079806;28;20028;-85
2022/11/01 06:06:00;;;;;;;6.60;1.67;;;;;;;13.10;69.25;101077.84;5050594;28;20076;-84
2022/11/01 06:08:25;;;;;;;14.93;2.45;;;;;;;13.07;68.44;101077.25;5052941;28;20049;-84
2022/11/01 06:10:51;;;;;;;4.47;1.60;;;;;;;13.04;69.21;101081.00;5052872;28;20100;-84
2022/11/01 06:13:17;;;;;;;6.07;1.60;;;;;;;13.02;69.01;101103.22;5050390;28;20175;-84
2022/11/01 06:15:43;;;;;;;7.00;1.90;;;;;;;12.98;69.57;101105.25;5046809;28;20093;-84
2022/11/01 06:18:08;;;;;;;5.80;1.50;;;;;;;12.94;70.01;101113.56;5030609;28;20053;-85
2022/11/01 06:20:35;;;;;;;7.45;2.05;;;;;;;12.91;70.63;101114.63;5063568;28;20030;-85
2022/11/01 06:23:08;;;;;;;6.25;1.50;;;;;;;12.90;71.29;101125.31;5046971;28;20164;-84
2022/11/01 06:25:34;;;;;;;;;;;;;;;12.96;72.43;101122.19;5031937;28;20037;-85
2022/11/01 06:27:59;;;;;;;10.23;1.88;;;;;;;12.84;72.38;101129.28;5045951;28;19953;-85
2022/11/01 06:30:25;;;;;;;4.45;1.20;;;;;;;12.80;72.71;101122.53;5031516;28;20021;-85
2022/11/01 06:32:50;;;;;;;7.20;1.52;;;;;;;12.79;73.15;101139.34;5063781;28;20029;-85
2022/11/01 06:35:16;;;;;;;7.60;1.70;;;;;;;12.75;73.61;101140.56;5025119;28;20022;-85
2022/11/01 06:37:41;;;;;;;9.43;1.65;;;;;;;12.77;73.74;101144.75;5031926;28;20545;-85
2022/11/01 06:40:07;;;;;;;8.05;1.75;;;;;;;12.77;73.80;101146.56;5046086;28;20466;-84
2022/11/01 06:42:33;;;;;;;7.07;1.70;;;;;;;12.77;73.53;101151.84;5046019;28;20022;-85
2022/11/01 06:44:58;;;;;;;10.02;1.58;;;;;;;12.75;73.89;101161.69;5046361;28;20083;-84
2022/11/01 06:47:24;;;;;;;6.88;1.67;;;;;;;12.72;74.33;101167.19;5030347;28;20132;-85
2022/11/01 06:49:49;;;;;;;10.45;1.90;;;;;;;12.71;74.28;101161.09;5028398;28;20056;-84
2022/11/01 06:52:14;;;;;;;9.40;1.80;;;;;;;12.66;74.63;101162.41;5031019;28;20983;-85
2022/11/01 06:54:40;;;;;;;5.78;1.60;;;;;;;12.62;74.37;101171.53;5031407;28;20025;-85
2022/11/01 06:57:05;;;;;;;6.20;1.52;;;;;;;12.59;74.52;101166.47;5029651;28;20036;-85
2022/11/01 06:59:30;;;;;;;6.57;1.67;;;;;;;12.54;74.53;101159.75;5046382;28;20433;-85
2022/11/01 07:01:59;;;;;;;6.82;1.75;;;;;;;12.54;74.20;101175.59;5060063;28;20115;-85
2022/11/01 07:04:26;;;;;;;13.02;1.95;;;;;;;12.56;74.00;101175.47;5011654;28;20026;-85
2022/11/01 07:06:52;;;;;;;12.15;2.05;;;;;;;12.52;74.72;101182.78;5020254;28;20112;-85
2022/11/01 07:09:17;;;;;;;9.70;2.25;;;;;;;12.49;74.95;101188.31;5030462;28;20116;-85
2022/11/01 07:11:43;;;;;;;7.70;1.65;;;;;;;12.50;75.34;101187.34;5064432;28;20087;-85
2022/11/01 07:14:08;;;;;;;9.32;2.03;;;;;;;12.50;74.93;101205.84;5031976;28;20030;-85
2022/11/01 07:16:34;;;;;;;8.02;1.52;;;;;;;12.50;74.88;101207.63;5035188;28;20025;-86
2022/11/01 07:18:59;;;;;;;8.38;1.88;;;;;;;12.50;75.09;101205.84;5058315;28;20025;-84
2022/11/01 07:21:24;;;;;;;8.65;1.77;;;;;;;12.49;74.74;101213.88;5059165;28;20025;-84
2022/11/01 07:23:52;;;;;;;10.88;1.88;;;;;;;12.47;74.82;101213.97;5040728;28;20049;-84
2022/11/01 07:26:17;;;;;;;7.32;1.73;;;;;;;12.49;74.78;101224.41;5035949;28;20029;-83
2022/11/01 07:28:43;;;;;;;8.68;1.75;;;;;;;12.47;74.53;101235.09;5039835;28;20029;-84
2022/11/01 07:31:08;;;;;;;13.55;2.50;;;;;;;12.45;74.77;101226.47;5038556;28;20033;-84
2022/11/01 07:33:33;;;;;;;11.20;2.17;;;;;;;12.46;75.02;101233.41;5039166;28;20126;-85
2022/11/01 07:35:59;;;;;;;11.77;2.65;;;;;;;12.47;74.26;101247.44;5070767;28;20478;-84
2022/11/01 07:38:25;;;;;;;11.70;2.25;;;;;;;12.46;74.90;101236.06;5039338;28;20021;-84
2022/11/01 07:40:52;;;;;;;11.32;2.30;;;;;;;12.46;74.98;101249.25;5066058;28;20026;-84
2022/11/01 07:43:17;;;;;;;11.77;2.10;;;;;;;12.48;73.79;101251.78;5036047;28;20025;-87
2022/11/01 07:45:44;;;;;;;15.98;2.17;;;;;;;12.47;73.65;101250.94;5050097;28;20050;-84
2022/11/01 07:48:15;;;;;;;14.27;2.10;;;;;;;12.50;73.42;101258.63;5036760;28;20021;-84
2022/11/01 07:50:41;;;;;;;12.38;2.20;;;;;;;12.49;73.42;101256.94;5039403;28;20074;-83
2022/11/01 07:53:12;;;;;;;12.73;2.67;;;;;;;12.50;73.12;101258.63;5036381;28;20025;-83
2022/11/01 07:55:38;;;;;;;10.68;2.20;;;;;;;12.52;73.12;101259.34;5051931;28;20022;-84
2022/11/01 07:58:04;;;;;;;12.70;2.90;;;;;;;12.54;72.39;101260.06;5045048;28;20029;-84
2022/11/01 08:00:30;;;;;;;14.15;2.70;;;;;;;12.56;72.34;101267.88;5033190;28;20045;-83
2022/11/01 08:03:05;;;;;;;16.17;2.58;;;;;;;12.59;72.83;101275.56;5035562;28;20029;-83
2022/11/01 08:05:31;;;;;;;14.10;2.50;;;;;;;12.63;72.45;101277.00;5034342;28;20354;-84
2022/11/01 08:07:56;;;;;;;18.10;2.85;;;;;;;12.67;72.46;101282.88;5048744;28;20019;-84
2022/11/01 08:10:25;;;;;;;13.85;2.25;;;;;;;12.69;72.45;101278.31;5050773;28;20116;-84
2022/11/01 08:12:51;;;;;;;17.73;2.70;;;;;;;12.71;72.26;101284.34;5032303;28;20039;-83
2022/11/01 08:15:16;;;;;;;14.57;2.58;;;;;;;12.74;71.59;101292.84;5035257;28;20116;-83
2022/11/01 08:17:41;;;;;;;13.88;2.60;;;;;;;12.76;71.40;101292.75;5036287;28;20059;-83
2022/11/01 08:20:07;;;;;;;17.80;2.60;;;;;;;12.78;71.03;101302.22;5032344;28;20104;-84
2022/11/01 08:22:36;;;;;;;21.92;3.55;;;;;;;12.82;71.10;101300.22;5030498;28;20034;-82
2022/11/01 08:25:02;;;;;;;14.85;2.90;;;;;;;12.84;71.26;101287.75;5030806;28;20405;-84
2022/11/01 08:27:27;;;;;;;19.67;3.15;;;;;;;12.88;70.35;101310.31;5029170;28;20030;-83
2022/11/01 08:29:52;;;;;;;17.63;2.97;;;;;;;12.90;70.62;101308.41;5029142;28;20033;-84
2022/11/01 08:32:21;;;;;;;24.05;3.00;;;;;;;12.94;70.40;101309.84;5025096;28;20112;-82
2022/11/01 08:34:47;;;;;;;20.35;3.85;;;;;;;12.95;70.40;101316.81;5024033;28;20426;-82
2022/11/01 08:37:13;;;;;;;17.77;3.33;;;;;;;12.97;69.93;101320.19;5036715;28;20045;-84
2022/11/01 08:39:38;;;;;;;15.60;2.92;;;;;;;13.00;70.46;101314.66;5030738;28;20493;-82
2022/11/01 08:42:04;;;;;;;16.17;2.85;;;;;;;13.04;70.41;101316.09;5044694;28;20029;-82
2022/11/01 08:44:30;;;;;;;18.40;3.13;;;;;;;13.07;69.65;101321.16;5028328;28;20030;-83
2022/11/01 08:47:00;;;;;;;14.80;3.20;;;;;;;13.08;69.28;101316.69;5027852;28;20028;-82
2022/11/01 08:49:26;;;;;;;17.73;3.00;;;;;;;13.12;69.80;101311.06;5059730;28;20605;-82
2022/11/01 08:51:51;;;;;;;18.67;3.13;;;;;;;13.13;69.36;101309.25;5039156;28;20126;-83
2022/11/01 08:54:17;;;;;;;15.23;3.22;;;;;;;13.16;69.61;101325.72;5034805;28;20060;-83
2022/11/01 08:56:42;;;;;;;19.67;2.88;;;;;;;13.21;69.16;101327.19;5027536;28;20398;-83
2022/11/01 08:59:08;;;;;;;17.73;2.90;;;;;;;13.23;69.38;101341.16;5033898;28;20029;-82
2022/11/01 09:01:34;;;;;;;15.05;2.50;;;;;;;13.26;69.14;101335.63;5044551;28;20029;-83
2022/11/01 09:04:00;;;;;;;18.63;2.53;;;;;;;13.28;69.05;101317.84;5055803;28;20477;-82
2022/11/01 09:06:26;;;;;;;20.35;3.42;;;;;;;13.33;69.00;101334.19;5028345;28;20501;-83
2022/11/01 09:08:52;;;;;;;14.50;2.42;;;;;;;13.35;68.74;101338.41;5031245;28;20025;-84
2022/11/01 09:11:19;;;;;;;19.65;3.83;;;;;;;13.34;68.99;101333.22;5047036;28;20029;-85
2022/11/01 09:13:44;;;;;;;10.75;2.53;;;;;;;13.39;68.78;101336.34;5048588;28;20525;-83
2022/11/01 09:16:10;;;;;;;20.10;2.97;;;;;;;13.42;69.43;101344.03;5047972;28;20024;-85
2022/11/01 09:18:35;;;;;;;23.88;3.28;;;;;;;13.46;69.04;101346.31;5049225;28;20028;-82
2022/11/01 09:21:01;;;;;;;27.40;3.42;;;;;;;13.49;70.10;101347.88;5038314;28;20495;-82
2022/11/01 09:23:26;;;;;;;20.08;3.25;;;;;;;13.53;69.50;101346.69;5040632;28;20049;-82
2022/11/01 09:25:52;;;;;;;22.40;3.72;;;;;;;13.53;68.49;101354.59;5049868;28;20441;-84
2022/11/01 09:28:17;;;;;;;18.00;3.00;;;;;;;13.54;68.33;101345.72;5047600;28;20028;-82
2022/11/01 09:30:42;;;;;;;20.90;3.22;;;;;;;13.58;68.79;101355.09;5049153;28;20504;-82
2022/11/01 09:33:08;;;;;;;19.35;3.00;;;;;;;13.62;68.61;101367.13;5047701;28;20135;-82
2022/11/01 09:35:34;;;;;;;17.85;3.50;;;;;;;13.59;68.26;101364.69;5029538;28;20517;-84
2022/11/01 09:38:00;;;;;;;19.35;2.95;;;;;;;13.62;68.64;101380.34;5021076;28;20036;-83
2022/11/01 09:40:29;;;;;;;15.40;3.38;;;;;;;13.67;68.79;101383.47;5045202;28;20017;-88
2022/11/01 09:42:56;;;;;;;24.88;3.30;;;;;;;13.74;68.44;101376.75;5046789;28;20032;-87
2022/11/01 09:45:25;;;;;;;21.42;3.30;;;;;;;13.75;68.76;101391.66;5044711;28;20021;-86
2022/11/01 09:47:55;;;;;;;17.38;2.90;;;;;;;13.78;68.61;101396.69;5030258;28;20033;-89
2022/11/01 09:50:25;;;;;;;18.52;3.38;;;;;;;13.78;68.24;101396.69;5044650;28;20021;-89
2022/11/01 09:52:54;;;;;;;27.48;3.40;;;;;;;13.84;68.50;101397.16;5061081;28;20037;-87
2022/11/01 09:55:50;;;;;;;16.83;3.05;;;;;;;13.93;69.12;101393.78;5025444;28;20112;-87
2022/11/01 09:58:25;;;;;;;22.67;3.33;;;;;;;13.98;68.40;101407.50;5008358;28;20278;-86
2022/11/01 10:01:10;;;;;;;20.17;3.30;;;;;;;14.00;68.30;101406.41;5009753;28;20022;-87
2022/11/01 10:04:01;;;;;;;20.00;3.17;;;;;;;14.05;68.75;101419.28;5009436;28;20394;-87
2022/11/01 10:06:41;;;;;;;24.17;3.78;;;;;;;14.12;68.04;101417.84;5008391;28;20394;-84
2022/11/01 10:09:32;;;;;;;18.98;3.05;;;;;;;14.17;68.98;101414.81;5012387;28;20109;-84
2022/11/01 10:12:04;;;;;;;23.08;3.42;;;;;;;14.16;67.78;101416.63;5048407;28;20110;-88
2022/11/01 10:14:44;;;;;;;24.55;3.67;;;;;;;14.19;68.21;101426.97;5065435;28;20845;-90
2022/11/01 10:17:15;;;;;;;21.52;3.47;;;;;;;14.25;68.46;101436.22;5031948;28;20034;-85
2022/11/01 10:19:46;;;;;;;20.08;3.42;;;;;;;14.21;67.84;101429.50;5063909;28;20452;-88
2022/11/01 10:22:17;;;;;;;22.00;3.10;;;;;;;14.16;67.60;101434.31;5031248;28;20060;-84
2022/11/01 10:25:01;;;;;;;14.85;3.03;;;;;;;14.22;68.76;101433.81;5030203;28;20045;-84
2022/11/01 10:27:44;;;;;;;15.05;3.10;;;;;;;14.25;67.62;101431.78;5029609;28;20029;-85
2022/11/01 10:30:17;;;;;;;;;;;;;;;14.33;69.15;101439.09;5029449;28;20022;-84
2022/11/01 10:33:01;;;;;;;13.00;2.58;;;;;;;14.42;68.66;101433.06;5030829;28;20006;-85
2022/11/01 10:35:31;;;;;;;14.55;2.80;;;;;;;14.48;67.51;101443.19;5031890;28;20026;-86
2022/11/01 10:38:18;;;;;;;14.75;2.78;;;;;;;14.56;67.06;101439.94;5032422;28;20115;-85
2022/11/01 10:41:15;;;;;;;15.88;3.05;;;;;;;14.63;68.02;101431.34;5032234;28;20034;-85
2022/11/01 10:43:44;;;;;;;19.80;3.45;;;;;;;14.75;66.56;101429.50;5031350;28;20391;-86
2022/11/01 10:46:18;;;;;;;17.23;3.08;;;;;;;14.84;66.19;101436.72;5023380;28;20022;-86
2022/11/01 10:48:48;;;;;;;20.00;3.20;;;;;;;14.83;65.76;101420.94;5011868;28;20030;-85
2022/11/01 10:51:17;;;;;;;20.85;3.03;;;;;;;14.88;65.99;101430.19;5026780;28;20026;-86
2022/11/01 10:53:47;;;;;;;22.63;4.00;;;;;;;14.91;65.58;101429.94;5027047;28;20033;-86
2022/11/01 10:56:25;;;;;;;17.23;2.80;;;;;;;14.93;66.00;101429.81;5024514;28;20052;-83
2022/11/01 10:58:53;;;;;;;16.63;2.67;;;;;;;15.01;65.88;101430.84;5030664;28;20390;-85
2022/11/01 11:01:23;;;;;;;13.73;3.15;;;;;;;15.02;65.09;101429.88;5062377;28;20140;-85
2022/11/01 11:03:50;;;;;;;19.95;3.60;;;;;;;15.11;65.13;101417.66;5016072;28;20025;-85
2022/11/01 11:06:17;;;;;;;14.45;2.95;;;;;;;15.15;64.63;101428.84;5043293;28;20206;-86
2022/11/01 11:08:48;;;;;;;15.20;3.05;;;;;;;15.26;65.30;101434.09;5011608;28;20018;-83
2022/11/01 11:11:15;;;;;;;12.30;2.90;;;;;;;15.22;64.15;101422.91;5027358;28;20073;-89
2022/11/01 11:13:52;;;;;;;13.18;2.83;;;;;;;15.31;65.44;101421.28;5019521;28;20032;-88
2022/11/01 11:16:43;;;;;;;14.50;2.80;;;;;;;15.40;65.64;101425.81;5030637;28;20031;-87
2022/11/01 11:19:30;;;;;;;16.80;3.25;;;;;;;15.43;64.61;101422.91;5027935;28;20075;-85
2022/11/01 11:21:57;;;;;;;14.52;3.15;;;;;;;15.57;64.84;101427.00;5029282;28;20122;-87
2022/11/01 11:24:29;;;;;;;19.88;3.15;;;;;;;15.55;64.05;101416.53;5030738;28;20062;-86
2022/11/01 11:27:00;;;;;;;12.45;2.85;;;;;;;15.63;63.75;101414.13;5030406;28;20079;-85
2022/11/01 11:29:36;;;;;;;16.35;2.97;;;;;;;15.64;63.46;101412.31;5030841;28;20032;-87
2022/11/01 11:32:03;;;;;;;18.00;2.95;;;;;;;15.65;62.70;101419.28;5031412;28;21272;-85
2022/11/01 11:34:32;;;;;;;14.70;3.05;;;;;;;15.66;63.03;101421.81;5042783;28;20020;-86
2022/11/01 11:37:00;;;;;;;11.93;2.55;;;;;;;15.61;63.38;101418.72;5026601;28;20345;-87
2022/11/01 11:39:36;;;;;;;16.02;2.92;;;;;;;15.75;64.66;101421.97;5030358;28;20020;-85